createdAt,value
2023-03-20T00:00:31.518Z,8.45
2023-03-20T00:02:34.731Z,8.10
2023-03-20T00:04:39.629Z,8.68
2023-03-20T00:06:43.137Z,7.90
2023-03-20T00:08:46.952Z,8.70
2023-03-20T00:10:50.373Z,8.02
2023-03-20T00:13:58.011Z,8.45
2023-03-20T00:16:01.570Z,7.65
2023-03-20T00:18:05.216Z,8.90
2023-03-20T00:20:15.309Z,8.52
2023-03-20T00:22:19.597Z,8.65
2023-03-20T00:28:39.206Z,9.50
2023-03-20T00:30:42.652Z,8.68
2023-03-20T00:32:46.195Z,8.57
2023-03-20T00:35:52.322Z,9.15
2023-03-20T00:37:57.368Z,9.30
2023-03-20T00:40:00.761Z,8.95
2023-03-20T00:42:06.179Z,8.15
2023-03-20T00:44:19.288Z,8.25
2023-03-20T00:46:23.078Z,8.35
2023-03-20T00:51:52.455Z,8.40
2023-03-20T00:53:57.459Z,8.05
2023-03-20T00:56:00.969Z,8.13
2023-03-20T00:58:24.761Z,8.23
2023-03-20T01:00:39.005Z,8.48
2023-03-20T01:02:42.682Z,7.80
2023-03-20T01:04:46.295Z,8.40
2023-03-20T01:06:49.857Z,8.65
2023-03-20T01:08:53.270Z,9.05
2023-03-20T01:10:58.922Z,9.27
2023-03-20T01:13:41.700Z,8.40
2023-03-20T01:15:45.212Z,8.77
2023-03-20T01:17:48.757Z,9.10
2023-03-20T01:19:52.424Z,8.43
2023-03-20T01:21:55.851Z,8.35
2023-03-20T01:24:11.166Z,9.15
2023-03-20T01:26:35.445Z,8.88
2023-03-20T01:28:39.520Z,8.88
2023-03-20T01:30:43.258Z,9.40
2023-03-20T01:32:52.385Z,9.13
2023-03-20T01:34:55.726Z,9.02
2023-03-20T01:36:59.400Z,9.07
2023-03-20T01:39:02.958Z,10.02
2023-03-20T01:41:08.128Z,10.05
2023-03-20T01:43:15.968Z,9.18
2023-03-20T01:45:21.440Z,9.85
2023-03-20T01:47:58.988Z,9.48
2023-03-20T01:50:22.540Z,8.88
2023-03-20T01:52:26.101Z,9.32
2023-03-20T01:54:31.165Z,9.02
2023-03-20T01:56:36.257Z,9.23
2023-03-20T01:58:42.588Z,9.98
2023-03-20T02:07:18.254Z,9.60
2023-03-20T02:09:21.923Z,10.65
2023-03-20T02:11:25.500Z,9.70
2023-03-20T02:13:33.381Z,9.95
2023-03-20T02:15:53.091Z,10.80
2023-03-20T02:17:56.620Z,11.90
2023-03-20T02:20:08.206Z,10.90
2023-03-20T02:22:31.853Z,11.63
2023-03-20T02:25:19.838Z,10.82
2023-03-20T02:31:45.750Z,10.93
2023-03-20T02:34:25.533Z,10.27
2023-03-20T02:37:29.358Z,10.15
2023-03-20T02:39:53.185Z,9.93
2023-03-20T02:41:58.510Z,10.52
2023-03-20T02:44:05.024Z,9.80
2023-03-20T02:46:10.551Z,10.48
2023-03-20T02:48:17.552Z,9.90
2023-03-20T02:50:23.859Z,10.65
2023-03-20T02:52:32.630Z,10.25
2023-03-20T02:54:40.113Z,9.60
2023-03-20T02:56:59.279Z,9.82
2023-03-20T02:59:06.799Z,9.23
2023-03-20T03:01:12.132Z,10.27
2023-03-20T03:03:17.929Z,9.98
2023-03-20T03:05:22.819Z,10.30
2023-03-20T03:07:27.300Z,10.02
2023-03-20T03:09:32.356Z,11.57
2023-03-20T03:11:37.484Z,10.18
2023-03-20T03:13:44.370Z,10.05
2023-03-20T03:16:35.743Z,11.02
2023-03-20T03:18:39.393Z,9.93
2023-03-20T03:20:42.830Z,10.40
2023-03-20T03:22:53.195Z,10.33
2023-03-20T03:24:57.191Z,10.43
2023-03-20T03:29:03.977Z,11.10
2023-03-20T03:31:08.552Z,11.48
2023-03-20T03:33:17.165Z,10.90
2023-03-20T03:35:21.890Z,10.23
2023-03-20T03:37:59.936Z,11.02
2023-03-20T03:40:08.252Z,13.77
2023-03-20T03:42:15.976Z,10.55
2023-03-20T03:44:23.904Z,11.85
2023-03-20T03:46:30.861Z,11.35
2023-03-20T03:48:37.116Z,12.43
2023-03-20T03:51:12.512Z,10.35
2023-03-20T03:53:16.760Z,10.63
2023-03-20T03:55:22.246Z,10.65
2023-03-20T03:57:29.419Z,10.48
2023-03-20T03:59:57.372Z,10.73
2023-03-20T04:02:01.523Z,10.63
2023-03-20T04:04:07.210Z,11.07
2023-03-20T04:06:15.921Z,10.68
2023-03-20T04:08:19.388Z,11.23
2023-03-20T04:10:22.764Z,11.25
2023-03-20T04:26:24.522Z,14.13
2023-03-20T04:28:27.816Z,14.95
2023-03-20T04:30:31.161Z,16.08
2023-03-20T04:32:35.349Z,16.42
2023-03-20T04:34:57.885Z,17.75
2023-03-20T04:37:02.235Z,19.65
2023-03-20T04:39:06.388Z,20.95
2023-03-20T04:41:09.798Z,20.55
2023-03-20T04:43:16.364Z,22.75
2023-03-20T04:45:20.539Z,22.02
2023-03-20T04:47:24.194Z,23.83
2023-03-20T04:49:28.931Z,26.45
2023-03-20T04:51:54.243Z,27.48
2023-03-20T04:53:57.784Z,29.80
2023-03-20T04:56:02.186Z,27.73
2023-03-20T04:58:06.726Z,29.70
2023-03-20T05:00:12.837Z,30.77
2023-03-20T05:03:17.106Z,33.03
2023-03-20T05:05:20.546Z,32.80
2023-03-20T05:07:24.176Z,30.70
2023-03-20T05:09:31.080Z,29.25
2023-03-20T05:11:34.699Z,28.98
2023-03-20T05:14:28.195Z,16.35
2023-03-20T05:16:33.057Z,13.50
2023-03-20T05:18:36.897Z,13.48
2023-03-20T05:20:40.633Z,15.00
2023-03-20T05:22:44.282Z,14.93
2023-03-20T05:24:47.788Z,16.15
2023-03-20T05:27:19.376Z,15.32
2023-03-20T05:29:23.135Z,18.25
2023-03-20T05:31:26.789Z,17.30
2023-03-20T05:33:31.705Z,15.45
2023-03-20T05:35:36.231Z,19.75
2023-03-20T05:37:39.959Z,20.88
2023-03-20T05:39:43.493Z,19.23
2023-03-20T05:41:57.759Z,18.02
2023-03-20T05:44:01.674Z,15.88
2023-03-20T05:46:05.778Z,17.42
2023-03-20T05:48:10.098Z,18.73
2023-03-20T05:50:54.194Z,16.63
2023-03-20T05:52:59.164Z,17.55
2023-03-20T05:55:02.945Z,20.02
2023-03-20T05:57:07.088Z,18.30
2023-03-20T05:59:10.794Z,16.92
2023-03-20T06:01:44.733Z,18.00
2023-03-20T06:03:48.740Z,15.48
2023-03-20T06:05:52.412Z,12.93
2023-03-20T06:07:56.849Z,16.83
2023-03-20T06:10:02.477Z,14.88
2023-03-20T06:12:06.724Z,14.95
2023-03-20T06:14:10.568Z,13.55
2023-03-20T06:16:20.042Z,15.05
2023-03-20T06:18:23.975Z,16.00
2023-03-20T06:20:27.855Z,16.63
2023-03-20T06:22:31.461Z,13.25
2023-03-20T06:24:35.991Z,19.45
2023-03-20T06:27:11.409Z,21.40
2023-03-20T06:29:15.066Z,25.27
2023-03-20T06:31:18.803Z,28.98
2023-03-20T06:33:22.830Z,30.60
2023-03-20T06:35:30.988Z,27.80
2023-03-20T06:38:04.482Z,30.00
2023-03-20T06:40:10.980Z,31.98
2023-03-20T06:42:16.865Z,31.50
2023-03-20T06:44:20.632Z,34.00
2023-03-20T06:46:24.641Z,34.00
2023-03-20T06:48:28.137Z,32.58
2023-03-20T06:50:32.442Z,28.95
2023-03-20T06:52:36.195Z,31.05
2023-03-20T06:54:42.324Z,31.48
2023-03-20T06:56:45.942Z,32.88
2023-03-20T06:58:51.198Z,31.40
2023-03-20T07:00:55.485Z,31.60
2023-03-20T07:03:01.747Z,33.20
2023-03-20T07:05:06.308Z,31.75
2023-03-20T07:07:10.187Z,31.83
2023-03-20T07:09:13.817Z,31.85
2023-03-20T07:11:36.660Z,32.40
2023-03-20T07:13:40.240Z,34.67
2023-03-20T07:16:01.125Z,30.48
2023-03-20T07:18:07.070Z,31.42
2023-03-20T07:20:11.965Z,30.75
2023-03-20T07:22:19.637Z,30.58
2023-03-20T07:24:23.482Z,28.40
2023-03-20T07:26:29.837Z,28.50
2023-03-20T07:28:33.617Z,29.48
2023-03-20T07:30:37.139Z,29.05
2023-03-20T07:32:42.977Z,29.75
2023-03-20T07:34:47.806Z,31.70
2023-03-20T07:36:51.624Z,32.72
2023-03-20T07:38:55.714Z,36.17
2023-03-20T07:40:59.448Z,32.40
2023-03-20T07:43:03.894Z,32.28
2023-03-20T07:45:09.484Z,31.92
2023-03-20T07:47:13.541Z,30.67
2023-03-20T07:49:21.632Z,29.20
2023-03-20T07:51:42.314Z,30.90
2023-03-20T07:53:46.004Z,29.83
2023-03-20T07:55:49.692Z,31.95
2023-03-20T07:57:53.332Z,30.25
2023-03-20T07:59:57.060Z,29.23
2023-03-20T08:02:00.710Z,31.02
2023-03-20T08:04:04.720Z,28.38
2023-03-20T08:06:17.780Z,29.27
2023-03-20T08:08:21.699Z,26.00
2023-03-20T08:10:25.834Z,26.23
2023-03-20T08:12:30.581Z,25.13
2023-03-20T08:15:03.756Z,28.85
2023-03-20T08:17:14.958Z,25.02
2023-03-20T08:19:20.044Z,26.65
2023-03-20T08:21:25.414Z,28.17
2023-03-20T08:23:29.077Z,27.05
2023-03-20T08:25:33.857Z,25.35
2023-03-20T08:31:04.242Z,25.85
2023-03-20T08:33:08.098Z,26.50
2023-03-20T08:35:29.718Z,29.95
2023-03-20T08:37:38.345Z,23.40
2023-03-20T08:39:42.079Z,28.60
2023-03-20T08:41:46.493Z,29.63
2023-03-20T08:43:50.019Z,24.33
2023-03-20T08:45:54.671Z,26.98
2023-03-20T08:48:00.515Z,30.20
2023-03-20T08:50:04.632Z,27.30
2023-03-20T08:52:08.467Z,25.33
2023-03-20T08:54:15.333Z,25.88
2023-03-20T08:56:19.175Z,27.95
2023-03-20T08:58:23.034Z,27.45
2023-03-20T09:00:28.078Z,27.42
2023-03-20T09:02:31.987Z,30.88
2023-03-20T09:04:36.113Z,28.73
2023-03-20T09:07:08.695Z,38.50
2023-03-20T09:09:16.067Z,36.80
2023-03-20T09:11:19.846Z,39.97
2023-03-20T09:13:27.612Z,40.05
2023-03-20T09:15:31.432Z,37.25
2023-03-20T09:17:36.974Z,39.15
2023-03-20T09:19:44.505Z,37.80
2023-03-20T09:21:49.142Z,36.17
2023-03-20T09:23:53.344Z,35.67
2023-03-20T09:25:58.630Z,36.40
2023-03-20T09:28:02.384Z,34.15
2023-03-20T09:30:07.398Z,33.58
2023-03-20T09:32:12.026Z,34.53
2023-03-20T09:34:15.772Z,33.17
2023-03-20T09:36:19.632Z,31.10
2023-03-20T09:38:29.322Z,32.35
2023-03-20T09:40:35.294Z,32.70
2023-03-20T09:42:46.255Z,32.40
2023-03-20T09:44:55.193Z,37.42
2023-03-20T09:47:19.779Z,30.55
2023-03-20T09:49:30.090Z,31.70
2023-03-20T09:51:36.677Z,30.08
2023-03-20T09:53:42.136Z,31.25
2023-03-20T09:55:45.936Z,25.23
2023-03-20T09:57:55.234Z,24.48
2023-03-20T10:00:00.806Z,24.10
2023-03-20T10:02:08.073Z,27.08
2023-03-20T10:04:12.223Z,25.35
2023-03-20T10:06:17.069Z,22.75
2023-03-20T10:08:25.975Z,25.00
2023-03-20T10:10:32.841Z,23.38
2023-03-20T10:12:48.984Z,25.35
2023-03-20T10:15:00.152Z,24.08
2023-03-20T10:17:10.878Z,24.10
2023-03-20T10:19:19.330Z,22.40
2023-03-20T10:21:24.344Z,26.75
2023-03-20T10:23:32.561Z,24.67
2023-03-20T10:25:37.863Z,17.77
2023-03-20T10:27:42.184Z,18.25
2023-03-20T10:29:50.548Z,17.23
2023-03-20T10:31:58.843Z,16.90
2023-03-20T10:34:16.875Z,15.43
2023-03-20T10:36:30.035Z,15.93
2023-03-20T10:38:36.771Z,18.10
2023-03-20T10:40:47.666Z,17.85
2023-03-20T10:42:51.598Z,18.90
2023-03-20T10:44:58.197Z,21.17
2023-03-20T10:47:03.550Z,20.15
2023-03-20T10:49:08.947Z,18.55
2023-03-20T10:51:15.184Z,18.63
2023-03-20T10:53:25.819Z,16.83
2023-03-20T10:55:31.843Z,16.60
2023-03-20T10:57:38.269Z,16.50
2023-03-20T10:59:43.802Z,15.35
2023-03-20T11:01:47.497Z,17.70
2023-03-20T11:03:52.766Z,14.65
2023-03-20T11:06:09.333Z,14.32
2023-03-20T11:08:15.431Z,15.10
2023-03-20T11:10:19.260Z,17.80
2023-03-20T11:12:22.706Z,15.80
2023-03-20T11:14:29.220Z,15.40
2023-03-20T11:16:34.116Z,16.27
2023-03-20T11:18:38.071Z,15.35
2023-03-20T11:20:46.962Z,15.48
2023-03-20T11:22:50.932Z,15.75
2023-03-20T11:24:55.599Z,14.13
2023-03-20T11:27:07.350Z,13.10
2023-03-20T11:29:14.983Z,14.40
2023-03-20T11:31:19.907Z,14.63
2023-03-20T11:33:23.709Z,13.68
2023-03-20T11:35:31.200Z,14.70
2023-03-20T11:37:37.137Z,15.15
2023-03-20T11:39:45.227Z,13.32
2023-03-20T11:41:51.641Z,12.60
2023-03-20T11:43:55.161Z,11.30
2023-03-20T11:45:59.834Z,10.70
2023-03-20T11:48:04.126Z,12.07
2023-03-20T11:50:08.772Z,10.95
2023-03-20T11:52:14.041Z,10.20
2023-03-20T11:54:20.553Z,8.52
2023-03-20T11:56:25.538Z,10.88
2023-03-20T11:58:30.975Z,9.57
2023-03-20T12:00:38.105Z,9.95
2023-03-20T12:02:42.768Z,9.88
2023-03-20T12:04:47.906Z,10.20
2023-03-20T12:06:54.309Z,13.25
2023-03-20T12:09:01.880Z,10.38
2023-03-20T12:11:19.203Z,9.88
2023-03-20T12:13:24.309Z,11.43
2023-03-20T12:15:29.240Z,11.43
2023-03-20T12:17:37.014Z,10.27
2023-03-20T12:19:40.540Z,9.50
2023-03-20T12:21:48.270Z,10.55
2023-03-20T12:23:54.483Z,10.00
2023-03-20T12:25:59.748Z,8.90
2023-03-20T12:28:07.084Z,8.75
2023-03-20T12:30:15.293Z,8.88
2023-03-20T12:32:20.779Z,11.05
2023-03-20T12:34:25.748Z,8.52
2023-03-20T12:36:33.128Z,8.65
2023-03-20T12:38:37.186Z,8.10
2023-03-20T12:40:43.683Z,7.20
2023-03-20T12:42:54.096Z,6.90
2023-03-20T12:45:01.132Z,6.07
2023-03-20T12:47:33.118Z,5.53
2023-03-20T12:49:43.240Z,4.13
2023-03-20T12:51:53.547Z,4.50
2023-03-20T12:54:03.202Z,4.00
2023-03-20T12:56:15.597Z,4.07
2023-03-20T12:58:36.551Z,5.55
2023-03-20T13:00:49.943Z,2.58
2023-03-20T13:03:15.051Z,2.20
2023-03-20T13:05:53.388Z,4.47
2023-03-20T13:08:10.695Z,4.20
2023-03-20T13:10:17.737Z,2.72
2023-03-20T13:12:27.494Z,2.83
2023-03-20T13:14:38.907Z,2.97
2023-03-20T13:16:48.608Z,2.60
2023-03-20T13:18:56.299Z,3.42
2023-03-20T13:20:59.686Z,3.92
2023-03-20T13:23:16.461Z,4.15
2023-03-20T13:25:26.494Z,2.35
2023-03-20T13:27:34.235Z,2.88
2023-03-20T13:29:43.401Z,2.25
2023-03-20T13:31:54.475Z,3.17
2023-03-20T13:33:59.614Z,2.83
2023-03-20T13:36:05.046Z,2.17
2023-03-20T13:38:13.230Z,3.35
2023-03-20T13:40:20.509Z,2.72
2023-03-20T13:42:24.523Z,2.67
2023-03-20T13:44:29.214Z,3.55
2023-03-20T13:46:35.639Z,3.50
2023-03-20T13:48:40.759Z,2.55
2023-03-20T13:50:47.774Z,3.75
2023-03-20T13:52:53.679Z,2.72
2023-03-20T13:55:16.226Z,3.22
2023-03-20T13:57:26.132Z,3.95
2023-03-20T13:59:58.052Z,2.80
2023-03-20T14:02:02.457Z,2.95
2023-03-20T14:04:08.822Z,3.38
2023-03-20T14:06:44.464Z,3.30
2023-03-20T14:08:51.260Z,4.60
2023-03-20T14:11:05.553Z,3.97
2023-03-20T14:13:14.093Z,4.00
2023-03-20T14:15:23.377Z,2.55
2023-03-20T14:17:27.275Z,3.35
2023-03-20T14:19:32.258Z,3.83
2023-03-20T14:21:36.539Z,3.90
2023-03-20T14:23:47.077Z,3.42
2023-03-20T14:25:50.463Z,3.30
2023-03-20T14:27:57.970Z,3.67
2023-03-20T14:30:03.101Z,7.22
2023-03-20T14:32:31.316Z,5.95
2023-03-20T14:34:48.306Z,4.60
2023-03-20T14:36:59.007Z,4.18
2023-03-20T14:39:14.203Z,5.40
2023-03-20T14:41:18.760Z,4.95
2023-03-20T14:43:29.443Z,4.70
2023-03-20T14:45:43.483Z,3.92
2023-03-20T14:47:50.540Z,5.82
2023-03-20T14:49:57.155Z,4.15
2023-03-20T14:52:02.656Z,3.40
2023-03-20T14:54:28.277Z,4.95
2023-03-20T14:56:35.375Z,3.90
2023-03-20T14:58:57.338Z,5.88
2023-03-20T15:01:03.693Z,5.07
2023-03-20T15:03:09.092Z,5.22
2023-03-20T15:05:25.109Z,5.55
2023-03-20T15:07:29.934Z,4.10
2023-03-20T15:09:34.934Z,5.10
2023-03-20T15:11:38.476Z,4.78
2023-03-20T15:13:42.820Z,4.60
2023-03-20T15:15:54.600Z,4.35
2023-03-20T15:18:04.158Z,5.45
2023-03-20T15:20:12.629Z,4.95
2023-03-20T15:22:19.135Z,6.68
2023-03-20T15:24:23.952Z,3.42
2023-03-20T15:26:27.760Z,7.20
2023-03-20T15:28:33.121Z,4.25
2023-03-20T15:30:43.723Z,2.72
2023-03-20T15:32:48.027Z,4.57
2023-03-20T15:34:52.090Z,4.53
2023-03-20T15:36:57.638Z,4.63
2023-03-20T15:39:11.446Z,3.35
2023-03-20T15:41:26.462Z,4.28
2023-03-20T15:43:30.564Z,2.75
2023-03-20T15:45:38.588Z,3.70
2023-03-20T15:47:44.193Z,3.00
2023-03-20T15:49:51.625Z,2.53
2023-03-20T15:51:56.040Z,3.15
2023-03-20T15:54:00.486Z,4.15
2023-03-20T15:56:17.616Z,3.78
2023-03-20T15:58:28.508Z,2.53
2023-03-20T16:00:33.170Z,3.67
2023-03-20T16:02:37.697Z,2.65
2023-03-20T16:04:45.529Z,2.15
2023-03-20T16:06:49.915Z,3.60
2023-03-20T16:09:00.819Z,2.60
2023-03-20T16:11:07.534Z,2.08
2023-03-20T16:13:13.109Z,2.40
2023-03-20T16:15:19.860Z,4.22
2023-03-20T16:17:23.779Z,2.88
2023-03-20T16:20:37.462Z,3.05
2023-03-20T16:22:47.967Z,3.25
2023-03-20T16:24:52.532Z,3.25
2023-03-20T16:26:57.628Z,4.25
2023-03-20T16:29:02.858Z,3.28
2023-03-20T16:31:10.346Z,3.95
2023-03-20T16:33:15.720Z,2.72
2023-03-20T16:35:20.499Z,3.28
2023-03-20T16:37:26.704Z,3.50
2023-03-20T16:39:31.041Z,2.60
2023-03-20T16:41:35.164Z,2.25
2023-03-20T16:43:50.947Z,4.40
2023-03-20T16:45:55.146Z,3.25
2023-03-20T16:48:27.777Z,2.47
2023-03-20T16:50:35.912Z,3.55
2023-03-20T16:52:40.920Z,2.00
2023-03-20T16:54:44.561Z,2.65
2023-03-20T16:56:51.091Z,3.55
2023-03-20T16:58:57.011Z,2.53
2023-03-20T17:01:02.829Z,3.45
2023-03-20T17:03:14.986Z,3.22
2023-03-20T17:05:19.824Z,4.22
2023-03-20T17:07:28.083Z,3.95
2023-03-20T17:09:31.815Z,3.83
2023-03-20T17:11:36.317Z,3.65
2023-03-20T17:13:40.179Z,3.65
2023-03-20T17:15:45.291Z,3.25
2023-03-20T17:17:48.756Z,3.75
2023-03-20T17:19:53.395Z,4.43
2023-03-20T17:21:57.856Z,4.13
2023-03-20T17:24:01.818Z,8.23
2023-03-20T17:26:06.012Z,4.90
2023-03-20T17:28:20.106Z,4.88
2023-03-20T17:30:25.196Z,3.75
2023-03-20T17:32:30.441Z,4.20
2023-03-20T17:34:34.262Z,4.20
2023-03-20T17:36:38.628Z,3.80
2023-03-20T17:39:13.239Z,4.43
2023-03-20T17:41:17.142Z,3.28
2023-03-20T17:43:21.207Z,4.05
2023-03-20T17:45:25.278Z,4.30
2023-03-20T17:47:30.462Z,7.10
2023-03-20T17:49:34.357Z,3.30
2023-03-20T17:51:39.350Z,4.15
2023-03-20T17:53:43.849Z,5.28
2023-03-20T17:55:47.355Z,4.50
2023-03-20T17:57:50.891Z,5.38
2023-03-20T17:59:54.561Z,4.10
2023-03-20T18:01:58.475Z,4.20
2023-03-20T18:04:03.720Z,4.65
2023-03-20T18:06:07.535Z,4.28
2023-03-20T18:08:14.217Z,4.70
2023-03-20T18:10:21.877Z,6.28
2023-03-20T18:12:25.479Z,3.60
2023-03-20T18:14:29.004Z,4.50
2023-03-20T18:16:32.774Z,6.13
2023-03-20T18:18:36.418Z,5.40
2023-03-20T18:20:46.570Z,3.83
2023-03-20T18:22:50.341Z,7.10
2023-03-20T18:24:54.217Z,5.93
2023-03-20T18:26:59.082Z,7.38
2023-03-20T18:29:02.738Z,5.60
2023-03-20T18:31:06.816Z,4.07
2023-03-20T18:33:10.608Z,5.15
2023-03-20T18:35:14.483Z,5.25
2023-03-20T18:37:22.077Z,4.70
2023-03-20T18:39:27.599Z,4.32
2023-03-20T18:41:31.128Z,6.03
2023-03-20T18:43:34.687Z,5.10
2023-03-20T18:45:39.792Z,5.45
2023-03-20T18:47:43.406Z,6.32
2023-03-20T18:49:58.599Z,6.40
2023-03-20T18:52:03.905Z,6.13
2023-03-20T18:54:09.796Z,5.22
2023-03-20T18:56:15.472Z,5.07
2023-03-20T18:58:22.713Z,8.48
2023-03-20T19:00:27.365Z,4.63
2023-03-20T19:14:07.706Z,7.70
2023-03-20T19:16:18.954Z,7.88
2023-03-20T19:18:23.271Z,6.20
2023-03-20T19:20:40.458Z,4.38
2023-03-20T19:22:44.025Z,4.13
2023-03-20T19:24:47.326Z,7.63
2023-03-20T19:26:50.922Z,5.68
2023-03-20T19:28:54.846Z,5.07
2023-03-20T19:31:01.208Z,6.00
2023-03-20T19:33:04.975Z,5.95
2023-03-20T19:35:50.533Z,5.47
2023-03-20T19:37:33.749Z,6.78
2023-03-20T19:39:37.479Z,5.22
2023-03-20T19:42:15.381Z,6.40
2023-03-20T19:44:23.593Z,6.25
2023-03-20T19:46:39.601Z,6.18
2023-03-20T19:48:50.539Z,6.18
2023-03-20T19:50:55.290Z,8.35
2023-03-20T19:52:59.129Z,6.35
2023-03-20T19:55:03.744Z,6.65
2023-03-20T19:57:07.382Z,7.32
2023-03-20T19:59:12.017Z,7.20
2023-03-20T20:01:18.367Z,6.65
2023-03-20T20:03:24.046Z,7.28
2023-03-20T20:05:29.557Z,7.72
2023-03-20T20:08:09.123Z,7.10
2023-03-20T20:09:58.792Z,6.82
2023-03-20T20:12:04.313Z,4.15
2023-03-20T20:14:09.779Z,6.05
2023-03-20T20:16:14.147Z,5.50
2023-03-20T20:18:17.773Z,5.90
2023-03-20T20:22:26.447Z,7.40
2023-03-20T20:24:30.730Z,4.55
2023-03-20T20:26:38.730Z,6.95
2023-03-20T20:28:44.677Z,9.43
2023-03-20T20:30:48.792Z,6.38
2023-03-20T20:32:52.559Z,5.28
2023-03-20T20:40:05.136Z,6.68
2023-03-20T20:42:08.819Z,7.03
2023-03-20T20:44:16.548Z,6.68
2023-03-20T20:46:23.288Z,5.88
2023-03-20T20:48:27.034Z,6.50
2023-03-20T20:50:31.997Z,5.47
2023-03-20T20:52:39.155Z,6.35
2023-03-20T20:54:44.386Z,7.93
2023-03-20T20:56:48.107Z,7.57
2023-03-20T20:58:51.510Z,6.93
2023-03-20T21:01:02.405Z,7.22
2023-03-20T21:03:06.212Z,6.25
2023-03-20T21:05:10.326Z,6.72
2023-03-20T21:07:14.050Z,5.32
2023-03-20T21:09:24.647Z,6.13
2023-03-20T21:11:28.744Z,8.20
2023-03-20T21:15:32.614Z,10.45
2023-03-20T21:17:53.807Z,8.50
2023-03-20T21:20:05.955Z,6.70
2023-03-20T21:22:09.907Z,7.75
2023-03-20T21:24:31.002Z,8.63
2023-03-20T21:26:37.619Z,7.75
2023-03-20T21:28:41.153Z,7.35
2023-03-20T21:31:08.970Z,9.50
2023-03-20T21:33:07.763Z,7.25
2023-03-20T21:35:12.911Z,7.35
2023-03-20T21:38:13.225Z,8.15
2023-03-20T21:39:39.920Z,8.43
2023-03-20T21:41:44.951Z,7.22
2023-03-20T21:43:48.252Z,6.65
2023-03-20T21:46:35.189Z,6.55
2023-03-20T21:49:12.555Z,11.98
2023-03-20T21:51:20.417Z,7.57
2023-03-20T22:01:04.229Z,8.93
2023-03-20T22:02:38.906Z,8.73
2023-03-20T22:12:38.438Z,6.30
2023-03-20T22:15:11.968Z,9.07
2023-03-20T22:29:35.827Z,9.75
2023-03-20T22:36:46.839Z,6.97
2023-03-20T22:39:05.209Z,9.48
2023-03-20T22:41:41.615Z,13.05
2023-03-20T22:45:42.295Z,9.88
2023-03-20T22:47:47.662Z,7.97
2023-03-20T22:49:56.849Z,7.97
2023-03-20T22:52:15.343Z,7.13
2023-03-20T22:54:24.022Z,8.05
2023-03-20T22:56:27.349Z,11.43
2023-03-20T22:58:31.050Z,8.80
2023-03-20T23:00:35.006Z,7.93
2023-03-20T23:02:38.681Z,9.73
2023-03-20T23:05:16.821Z,7.10
2023-03-20T23:07:20.272Z,8.45
2023-03-20T23:09:23.908Z,7.47
2023-03-20T23:11:28.171Z,10.23
2023-03-20T23:13:31.667Z,9.95
2023-03-20T23:15:35.510Z,7.60
2023-03-20T23:17:39.814Z,8.60
2023-03-20T23:19:50.513Z,8.80
2023-03-20T23:22:01.432Z,9.98
2023-03-20T23:24:05.007Z,8.18
2023-03-20T23:26:08.952Z,9.32
2023-03-20T23:28:12.574Z,8.35
2023-03-20T23:30:20.654Z,7.55
2023-03-20T23:32:24.060Z,10.52
2023-03-20T23:40:47.022Z,8.73
2023-03-20T23:42:56.162Z,8.38
2023-03-20T23:45:19.261Z,10.88
2023-03-20T23:47:25.706Z,12.90
2023-03-20T23:49:45.913Z,12.23
2023-03-20T23:51:49.407Z,8.13
2023-03-20T23:53:56.092Z,8.02
2023-03-20T23:55:59.957Z,9.40
2023-03-20T23:58:04.904Z,10.68
